sensor_id;sensor_type;location;lat;lon;timestamp;P1;durP1;ratioP1;P2;durP2;ratioP2
23474;SDS011;11910;52.086;21.066;2023-04-25T00:01:10;14.75;;;12.80;;
23474;SDS011;11910;52.086;21.066;2023-04-25T00:03:39;15.25;;;13.18;;
23474;SDS011;11910;52.086;21.066;2023-04-25T00:06:05;17.58;;;14.32;;
23474;SDS011;11910;52.086;21.066;2023-04-25T00:08:31;16.27;;;14.23;;
23474;SDS011;11910;52.086;21.066;2023-04-25T00:10:57;14.23;;;12.45;;
23474;SDS011;11910;52.086;21.066;2023-04-25T00:13:23;16.63;;;13.13;;
23474;SDS011;11910;52.086;21.066;2023-04-25T00:15:50;15.52;;;13.40;;
23474;SDS011;11910;52.086;21.066;2023-04-25T00:18:18;16.42;;;14.45;;
23474;SDS011;11910;52.086;21.066;2023-04-25T00:20:44;16.17;;;13.35;;
23474;SDS011;11910;52.086;21.066;2023-04-25T00:23:12;13.13;;;11.73;;
23474;SDS011;11910;52.086;21.066;2023-04-25T00:25:42;13.50;;;12.10;;
23474;SDS011;11910;52.086;21.066;2023-04-25T00:28:12;15.60;;;13.18;;
23474;SDS011;11910;52.086;21.066;2023-04-25T00:30:38;18.35;;;14.43;;
23474;SDS011;11910;52.086;21.066;2023-04-25T00:33:04;17.17;;;15.23;;
23474;SDS011;11910;52.086;21.066;2023-04-25T00:35:30;17.73;;;14.57;;
23474;SDS011;11910;52.086;21.066;2023-04-25T00:37:56;17.00;;;15.00;;
23474;SDS011;11910;52.086;21.066;2023-04-25T00:40:21;16.65;;;13.68;;
23474;SDS011;11910;52.086;21.066;2023-04-25T00:42:47;18.55;;;14.13;;
23474;SDS011;11910;52.086;21.066;2023-04-25T00:45:13;15.27;;;13.75;;
23474;SDS011;11910;52.086;21.066;2023-04-25T00:47:40;17.90;;;15.77;;
23474;SDS011;11910;52.086;21.066;2023-04-25T00:50:06;18.23;;;15.38;;
23474;SDS011;11910;52.086;21.066;2023-04-25T00:52:33;17.38;;;14.90;;
23474;SDS011;11910;52.086;21.066;2023-04-25T00:54:59;19.58;;;14.85;;
23474;SDS011;11910;52.086;21.066;2023-04-25T00:57:25;20.67;;;16.38;;
23474;SDS011;11910;52.086;21.066;2023-04-25T00:59:51;19.23;;;16.10;;
23474;SDS011;11910;52.086;21.066;2023-04-25T01:02:18;19.75;;;17.70;;
23474;SDS011;11910;52.086;21.066;2023-04-25T01:04:45;19.02;;;15.20;;
23474;SDS011;11910;52.086;21.066;2023-04-25T01:07:12;14.63;;;13.02;;
23474;SDS011;11910;52.086;21.066;2023-04-25T01:09:38;19.98;;;15.35;;
23474;SDS011;11910;52.086;21.066;2023-04-25T01:12:04;16.48;;;14.35;;
23474;SDS011;11910;52.086;21.066;2023-04-25T01:14:29;15.27;;;13.68;;
23474;SDS011;11910;52.086;21.066;2023-04-25T01:16:55;16.42;;;13.48;;
23474;SDS011;11910;52.086;21.066;2023-04-25T01:19:21;14.93;;;12.77;;
23474;SDS011;11910;52.086;21.066;2023-04-25T01:21:46;18.02;;;13.52;;
23474;SDS011;11910;52.086;21.066;2023-04-25T01:24:12;17.52;;;14.63;;
23474;SDS011;11910;52.086;21.066;2023-04-25T01:26:39;16.17;;;13.98;;
23474;SDS011;11910;52.086;21.066;2023-04-25T01:29:09;16.83;;;13.35;;
23474;SDS011;11910;52.086;21.066;2023-04-25T01:31:35;15.85;;;14.15;;
23474;SDS011;11910;52.086;21.066;2023-04-25T01:34:01;13.60;;;12.20;;
23474;SDS011;11910;52.086;21.066;2023-04-25T01:36:27;17.80;;;15.82;;
23474;SDS011;11910;52.086;21.066;2023-04-25T01:38:53;19.27;;;16.77;;
23474;SDS011;11910;52.086;21.066;2023-04-25T01:41:20;20.38;;;16.80;;
23474;SDS011;11910;52.086;21.066;2023-04-25T01:43:48;17.98;;;15.77;;
23474;SDS011;11910;52.086;21.066;2023-04-25T01:46:14;17.90;;;15.98;;
23474;SDS011;11910;52.086;21.066;2023-04-25T01:48:39;18.25;;;16.40;;
23474;SDS011;11910;52.086;21.066;2023-04-25T01:51:05;19.92;;;16.20;;
23474;SDS011;11910;52.086;21.066;2023-04-25T01:53:31;14.93;;;13.00;;
23474;SDS011;11910;52.086;21.066;2023-04-25T01:55:57;16.73;;;14.82;;
23474;SDS011;11910;52.086;21.066;2023-04-25T01:58:22;15.85;;;14.20;;
23474;SDS011;11910;52.086;21.066;2023-04-25T02:00:48;15.77;;;14.07;;
23474;SDS011;11910;52.086;21.066;2023-04-25T02:03:13;15.95;;;14.00;;
23474;SDS011;11910;52.086;21.066;2023-04-25T02:05:39;15.30;;;13.70;;
23474;SDS011;11910;52.086;21.066;2023-04-25T02:08:06;17.30;;;15.40;;
23474;SDS011;11910;52.086;21.066;2023-04-25T02:10:34;19.92;;;17.58;;
23474;SDS011;11910;52.086;21.066;2023-04-25T02:13:00;20.23;;;16.67;;
23474;SDS011;11910;52.086;21.066;2023-04-25T02:15:26;21.52;;;18.13;;
23474;SDS011;11910;52.086;21.066;2023-04-25T02:17:52;18.98;;;16.98;;
23474;SDS011;11910;52.086;21.066;2023-04-25T02:20:18;22.17;;;17.65;;
23474;SDS011;11910;52.086;21.066;2023-04-25T02:22:45;21.20;;;18.15;;
23474;SDS011;11910;52.086;21.066;2023-04-25T02:25:11;21.25;;;17.60;;
23474;SDS011;11910;52.086;21.066;2023-04-25T02:27:37;21.10;;;18.17;;
23474;SDS011;11910;52.086;21.066;2023-04-25T02:30:03;22.33;;;17.83;;
23474;SDS011;11910;52.086;21.066;2023-04-25T02:32:30;21.73;;;17.55;;
23474;SDS011;11910;52.086;21.066;2023-04-25T02:34:55;21.27;;;18.58;;
23474;SDS011;11910;52.086;21.066;2023-04-25T02:37:23;20.33;;;14.07;;
23474;SDS011;11910;52.086;21.066;2023-04-25T02:39:49;18.60;;;15.77;;
23474;SDS011;11910;52.086;21.066;2023-04-25T02:42:15;16.95;;;15.25;;
23474;SDS011;11910;52.086;21.066;2023-04-25T02:44:40;16.45;;;14.65;;
23474;SDS011;11910;52.086;21.066;2023-04-25T02:47:06;18.70;;;15.73;;
23474;SDS011;11910;52.086;21.066;2023-04-25T02:49:31;15.15;;;13.50;;
23474;SDS011;11910;52.086;21.066;2023-04-25T02:51:57;17.60;;;15.70;;
23474;SDS011;11910;52.086;21.066;2023-04-25T02:54:23;21.20;;;17.88;;
23474;SDS011;11910;52.086;21.066;2023-04-25T02:56:48;17.92;;;15.35;;
23474;SDS011;11910;52.086;21.066;2023-04-25T02:59:14;17.10;;;15.10;;
23474;SDS011;11910;52.086;21.066;2023-04-25T03:01:40;13.90;;;12.45;;
23474;SDS011;11910;52.086;21.066;2023-04-25T03:04:05;16.25;;;14.55;;
23474;SDS011;11910;52.086;21.066;2023-04-25T03:06:31;17.00;;;14.57;;
23474;SDS011;11910;52.086;21.066;2023-04-25T03:08:57;30.42;;;16.98;;
23474;SDS011;11910;52.086;21.066;2023-04-25T03:11:23;14.00;;;12.50;;
23474;SDS011;11910;52.086;21.066;2023-04-25T03:13:50;20.30;;;15.70;;
23474;SDS011;11910;52.086;21.066;2023-04-25T03:16:15;20.15;;;16.40;;
23474;SDS011;11910;52.086;21.066;2023-04-25T03:18:41;21.33;;;14.52;;
23474;SDS011;11910;52.086;21.066;2023-04-25T03:21:07;23.27;;;14.00;;
23474;SDS011;11910;52.086;21.066;2023-04-25T03:23:32;34.42;;;17.00;;
23474;SDS011;11910;52.086;21.066;2023-04-25T03:25:58;23.00;;;17.73;;
23474;SDS011;11910;52.086;21.066;2023-04-25T03:28:24;25.42;;;19.00;;
23474;SDS011;11910;52.086;21.066;2023-04-25T03:30:50;29.08;;;17.98;;
23474;SDS011;11910;52.086;21.066;2023-04-25T03:33:15;28.70;;;18.38;;
23474;SDS011;11910;52.086;21.066;2023-04-25T03:35:41;30.30;;;18.40;;
23474;SDS011;11910;52.086;21.066;2023-04-25T03:38:07;24.98;;;17.13;;
23474;SDS011;11910;52.086;21.066;2023-04-25T03:40:33;23.48;;;16.80;;
23474;SDS011;11910;52.086;21.066;2023-04-25T03:42:59;19.08;;;14.20;;
23474;SDS011;11910;52.086;21.066;2023-04-25T03:45:24;16.30;;;12.85;;
23474;SDS011;11910;52.086;21.066;2023-04-25T03:47:50;17.30;;;12.90;;
23474;SDS011;11910;52.086;21.066;2023-04-25T03:50:15;12.27;;;11.07;;
23474;SDS011;11910;52.086;21.066;2023-04-25T03:52:42;13.38;;;10.68;;
23474;SDS011;11910;52.086;21.066;2023-04-25T03:55:08;11.07;;;9.82;;
23474;SDS011;11910;52.086;21.066;2023-04-25T03:57:34;11.15;;;9.20;;
23474;SDS011;11910;52.086;21.066;2023-04-25T04:00:00;9.82;;;8.77;;
23474;SDS011;11910;52.086;21.066;2023-04-25T04:02:26;10.43;;;9.10;;
23474;SDS011;11910;52.086;21.066;2023-04-25T04:04:51;10.13;;;8.52;;
23474;SDS011;11910;52.086;21.066;2023-04-25T04:07:17;9.20;;;8.23;;
23474;SDS011;11910;52.086;21.066;2023-04-25T04:09:43;9.80;;;7.95;;
23474;SDS011;11910;52.086;21.066;2023-04-25T04:12:08;12.25;;;7.93;;
23474;SDS011;11910;52.086;21.066;2023-04-25T04:14:34;11.32;;;7.70;;
23474;SDS011;11910;52.086;21.066;2023-04-25T04:16:59;8.35;;;7.45;;
23474;SDS011;11910;52.086;21.066;2023-04-25T04:19:25;9.02;;;7.90;;
23474;SDS011;11910;52.086;21.066;2023-04-25T04:21:51;12.52;;;7.45;;
23474;SDS011;11910;52.086;21.066;2023-04-25T04:24:16;10.60;;;8.02;;
23474;SDS011;11910;52.086;21.066;2023-04-25T04:26:42;9.15;;;7.85;;
23474;SDS011;11910;52.086;21.066;2023-04-25T04:29:09;10.95;;;7.80;;
23474;SDS011;11910;52.086;21.066;2023-04-25T04:31:35;10.60;;;7.93;;
23474;SDS011;11910;52.086;21.066;2023-04-25T04:34:01;13.32;;;8.00;;
23474;SDS011;11910;52.086;21.066;2023-04-25T04:36:28;8.20;;;7.40;;
23474;SDS011;11910;52.086;21.066;2023-04-25T04:38:54;11.18;;;8.65;;
23474;SDS011;11910;52.086;21.066;2023-04-25T04:41:21;9.55;;;8.43;;
23474;SDS011;11910;52.086;21.066;2023-04-25T04:43:47;9.70;;;8.50;;
23474;SDS011;11910;52.086;21.066;2023-04-25T04:46:13;9.43;;;8.52;;
23474;SDS011;11910;52.086;21.066;2023-04-25T04:48:39;9.15;;;8.20;;
23474;SDS011;11910;52.086;21.066;2023-04-25T04:51:05;11.32;;;8.50;;
23474;SDS011;11910;52.086;21.066;2023-04-25T04:53:31;11.60;;;8.65;;
23474;SDS011;11910;52.086;21.066;2023-04-25T04:55:57;11.25;;;8.35;;
23474;SDS011;11910;52.086;21.066;2023-04-25T04:58:23;12.65;;;9.57;;
23474;SDS011;11910;52.086;21.066;2023-04-25T05:00:48;10.68;;;9.57;;
23474;SDS011;11910;52.086;21.066;2023-04-25T05:03:14;11.45;;;9.90;;
23474;SDS011;11910;52.086;21.066;2023-04-25T05:05:40;11.77;;;10.57;;
23474;SDS011;11910;52.086;21.066;2023-04-25T05:08:06;11.43;;;10.32;;
23474;SDS011;11910;52.086;21.066;2023-04-25T05:10:32;12.05;;;10.93;;
23474;SDS011;11910;52.086;21.066;2023-04-25T05:12:58;12.73;;;11.43;;
23474;SDS011;11910;52.086;21.066;2023-04-25T05:15:23;12.25;;;10.95;;
23474;SDS011;11910;52.086;21.066;2023-04-25T05:17:49;13.02;;;11.60;;
23474;SDS011;11910;52.086;21.066;2023-04-25T05:20:15;12.18;;;10.90;;
23474;SDS011;11910;52.086;21.066;2023-04-25T05:22:41;12.90;;;11.52;;
23474;SDS011;11910;52.086;21.066;2023-04-25T05:25:07;12.77;;;11.20;;
23474;SDS011;11910;52.086;21.066;2023-04-25T05:27:34;14.68;;;11.48;;
23474;SDS011;11910;52.086;21.066;2023-04-25T05:30:00;11.98;;;10.80;;
23474;SDS011;11910;52.086;21.066;2023-04-25T05:32:25;12.70;;;11.18;;
23474;SDS011;11910;52.086;21.066;2023-04-25T05:34:51;11.95;;;10.32;;
23474;SDS011;11910;52.086;21.066;2023-04-25T05:37:17;12.95;;;10.63;;
23474;SDS011;11910;52.086;21.066;2023-04-25T05:39:43;12.15;;;10.95;;
23474;SDS011;11910;52.086;21.066;2023-04-25T05:42:08;11.70;;;10.50;;
23474;SDS011;11910;52.086;21.066;2023-04-25T05:44:36;11.40;;;10.20;;
23474;SDS011;11910;52.086;21.066;2023-04-25T05:47:02;11.13;;;10.00;;
23474;SDS011;11910;52.086;21.066;2023-04-25T05:49:29;12.27;;;11.05;;
23474;SDS011;11910;52.086;21.066;2023-04-25T05:51:55;12.13;;;10.93;;
23474;SDS011;11910;52.086;21.066;2023-04-25T05:54:22;12.75;;;11.48;;
23474;SDS011;11910;52.086;21.066;2023-04-25T05:56:48;12.82;;;11.45;;
23474;SDS011;11910;52.086;21.066;2023-04-25T05:59:13;13.57;;;11.90;;
23474;SDS011;11910;52.086;21.066;2023-04-25T06:01:39;12.93;;;11.63;;
23474;SDS011;11910;52.086;21.066;2023-04-25T06:04:05;12.30;;;11.15;;
23474;SDS011;11910;52.086;21.066;2023-04-25T06:06:30;14.10;;;12.07;;
23474;SDS011;11910;52.086;21.066;2023-04-25T06:08:56;14.55;;;11.95;;
23474;SDS011;11910;52.086;21.066;2023-04-25T06:11:22;15.95;;;13.43;;
23474;SDS011;11910;52.086;21.066;2023-04-25T06:13:47;16.27;;;13.95;;
23474;SDS011;11910;52.086;21.066;2023-04-25T06:16:15;17.40;;;15.57;;
23474;SDS011;11910;52.086;21.066;2023-04-25T06:18:41;16.25;;;14.60;;
23474;SDS011;11910;52.086;21.066;2023-04-25T06:21:06;16.40;;;14.15;;
23474;SDS011;11910;52.086;21.066;2023-04-25T06:23:32;16.30;;;14.60;;
23474;SDS011;11910;52.086;21.066;2023-04-25T06:25:58;15.45;;;13.88;;
23474;SDS011;11910;52.086;21.066;2023-04-25T06:28:23;16.00;;;14.30;;
23474;SDS011;11910;52.086;21.066;2023-04-25T06:30:49;15.73;;;13.88;;
23474;SDS011;11910;52.086;21.066;2023-04-25T06:33:15;15.43;;;13.30;;
23474;SDS011;11910;52.086;21.066;2023-04-25T06:35:43;15.32;;;13.68;;
23474;SDS011;11910;52.086;21.066;2023-04-25T06:38:08;14.82;;;13.25;;
23474;SDS011;11910;52.086;21.066;2023-04-25T06:40:34;15.15;;;13.48;;
23474;SDS011;11910;52.086;21.066;2023-04-25T06:43:00;14.30;;;12.50;;
23474;SDS011;11910;52.086;21.066;2023-04-25T06:45:25;14.10;;;12.70;;
23474;SDS011;11910;52.086;21.066;2023-04-25T06:47:51;14.30;;;12.90;;
23474;SDS011;11910;52.086;21.066;2023-04-25T06:50:16;14.93;;;13.10;;
23474;SDS011;11910;52.086;21.066;2023-04-25T06:52:42;13.55;;;12.25;;
23474;SDS011;11910;52.086;21.066;2023-04-25T06:55:08;12.98;;;11.77;;
23474;SDS011;11910;52.086;21.066;2023-04-25T06:57:34;12.15;;;11.00;;
23474;SDS011;11910;52.086;21.066;2023-04-25T07:00:00;12.10;;;10.90;;
23474;SDS011;11910;52.086;21.066;2023-04-25T07:02:25;12.65;;;11.35;;
23474;SDS011;11910;52.086;21.066;2023-04-25T07:04:54;11.63;;;10.43;;
23474;SDS011;11910;52.086;21.066;2023-04-25T07:07:27;11.35;;;10.15;;
23474;SDS011;11910;52.086;21.066;2023-04-25T07:09:55;11.73;;;9.93;;
23474;SDS011;11910;52.086;21.066;2023-04-25T07:12:24;10.70;;;9.57;;
23474;SDS011;11910;52.086;21.066;2023-04-25T07:14:49;10.90;;;9.90;;
23474;SDS011;11910;52.086;21.066;2023-04-25T07:17:15;11.60;;;10.40;;
23474;SDS011;11910;52.086;21.066;2023-04-25T07:19:41;10.90;;;9.80;;
23474;SDS011;11910;52.086;21.066;2023-04-25T07:22:07;11.13;;;10.00;;
23474;SDS011;11910;52.086;21.066;2023-04-25T07:24:32;10.98;;;9.90;;
23474;SDS011;11910;52.086;21.066;2023-04-25T07:26:58;11.68;;;9.85;;
23474;SDS011;11910;52.086;21.066;2023-04-25T07:29:24;10.65;;;9.55;;
23474;SDS011;11910;52.086;21.066;2023-04-25T07:31:52;10.35;;;9.32;;
23474;SDS011;11910;52.086;21.066;2023-04-25T07:34:20;9.43;;;8.52;;
23474;SDS011;11910;52.086;21.066;2023-04-25T07:36:46;10.40;;;9.25;;
23474;SDS011;11910;52.086;21.066;2023-04-25T07:39:12;10.80;;;9.02;;
23474;SDS011;11910;52.086;21.066;2023-04-25T07:41:37;9.65;;;8.32;;
23474;SDS011;11910;52.086;21.066;2023-04-25T07:44:06;8.90;;;8.05;;
23474;SDS011;11910;52.086;21.066;2023-04-25T07:46:32;8.77;;;7.97;;
23474;SDS011;11910;52.086;21.066;2023-04-25T07:48:57;9.27;;;8.30;;
23474;SDS011;11910;52.086;21.066;2023-04-25T07:51:23;9.55;;;7.63;;
23474;SDS011;11910;52.086;21.066;2023-04-25T07:53:49;8.45;;;7.45;;
23474;SDS011;11910;52.086;21.066;2023-04-25T07:56:15;8.73;;;7.90;;
23474;SDS011;11910;52.086;21.066;2023-04-25T07:58:41;8.80;;;7.82;;
23474;SDS011;11910;52.086;21.066;2023-04-25T08:01:06;9.57;;;7.75;;
23474;SDS011;11910;52.086;21.066;2023-04-25T08:03:32;9.32;;;8.43;;
23474;SDS011;11910;52.086;21.066;2023-04-25T08:05:58;11.50;;;7.60;;
23474;SDS011;11910;52.086;21.066;2023-04-25T08:08:24;8.32;;;7.63;;
23474;SDS011;11910;52.086;21.066;2023-04-25T08:10:49;9.50;;;7.70;;
23474;SDS011;11910;52.086;21.066;2023-04-25T08:13:15;8.20;;;7.50;;
23474;SDS011;11910;52.086;21.066;2023-04-25T08:15:41;9.18;;;8.02;;
23474;SDS011;11910;52.086;21.066;2023-04-25T08:18:08;8.20;;;7.40;;
23474;SDS011;11910;52.086;21.066;2023-04-25T08:20:33;8.98;;;8.07;;
23474;SDS011;11910;52.086;21.066;2023-04-25T08:22:59;8.32;;;6.85;;
23474;SDS011;11910;52.086;21.066;2023-04-25T08:25:25;8.80;;;7.90;;
23474;SDS011;11910;52.086;21.066;2023-04-25T08:27:50;8.70;;;7.20;;
23474;SDS011;11910;52.086;21.066;2023-04-25T08:30:16;9.30;;;8.40;;
23474;SDS011;11910;52.086;21.066;2023-04-25T08:32:42;8.07;;;7.20;;
23474;SDS011;11910;52.086;21.066;2023-04-25T08:35:07;8.60;;;7.28;;
23474;SDS011;11910;52.086;21.066;2023-04-25T08:37:34;7.32;;;6.63;;
23474;SDS011;11910;52.086;21.066;2023-04-25T08:40:01;7.90;;;6.90;;
23474;SDS011;11910;52.086;21.066;2023-04-25T08:42:27;7.93;;;7.20;;
23474;SDS011;11910;52.086;21.066;2023-04-25T08:44:55;8.57;;;6.75;;
23474;SDS011;11910;52.086;21.066;2023-04-25T08:47:22;8.30;;;7.50;;
23474;SDS011;11910;52.086;21.066;2023-04-25T08:49:47;9.23;;;7.57;;
23474;SDS011;11910;52.086;21.066;2023-04-25T08:52:14;7.68;;;6.97;;
23474;SDS011;11910;52.086;21.066;2023-04-25T08:54:42;9.85;;;7.68;;
23474;SDS011;11910;52.086;21.066;2023-04-25T08:57:11;11.82;;;7.85;;
23474;SDS011;11910;52.086;21.066;2023-04-25T08:59:37;9.32;;;7.78;;
23474;SDS011;11910;52.086;21.066;2023-04-25T09:02:05;7.30;;;6.70;;
23474;SDS011;11910;52.086;21.066;2023-04-25T09:04:31;8.43;;;6.75;;
23474;SDS011;11910;52.086;21.066;2023-04-25T09:06:57;8.07;;;7.28;;
23474;SDS011;11910;52.086;21.066;2023-04-25T09:09:23;13.25;;;8.13;;
23474;SDS011;11910;52.086;21.066;2023-04-25T09:11:49;7.45;;;6.70;;
23474;SDS011;11910;52.086;21.066;2023-04-25T09:14:16;8.55;;;7.30;;
23474;SDS011;11910;52.086;21.066;2023-04-25T09:19:25;8.07;;;7.28;;
23474;SDS011;11910;52.086;21.066;2023-04-25T09:21:54;7.82;;;7.13;;
23474;SDS011;11910;52.086;21.066;2023-04-25T09:24:36;8.73;;;7.93;;
23474;SDS011;11910;52.086;21.066;2023-04-25T09:27:11;8.07;;;7.28;;
23474;SDS011;11910;52.086;21.066;2023-04-25T09:29:41;8.60;;;7.70;;
23474;SDS011;11910;52.086;21.066;2023-04-25T09:32:18;9.93;;;8.90;;
23474;SDS011;11910;52.086;21.066;2023-04-25T09:34:50;9.45;;;8.55;;
23474;SDS011;11910;52.086;21.066;2023-04-25T09:37:20;8.65;;;7.75;;
23474;SDS011;11910;52.086;21.066;2023-04-25T09:39:56;9.27;;;8.38;;
23474;SDS011;11910;52.086;21.066;2023-04-25T09:42:30;9.05;;;8.15;;
23474;SDS011;11910;52.086;21.066;2023-04-25T09:44:57;9.25;;;8.30;;
23474;SDS011;11910;52.086;21.066;2023-04-25T09:47:24;9.07;;;8.18;;
23474;SDS011;11910;52.086;21.066;2023-04-25T09:49:53;8.73;;;7.85;;
23474;SDS011;11910;52.086;21.066;2023-04-25T09:52:21;9.07;;;8.27;;
23474;SDS011;11910;52.086;21.066;2023-04-25T09:54:48;8.43;;;7.60;;
23474;SDS011;11910;52.086;21.066;2023-04-25T09:57:19;9.60;;;8.05;;
23474;SDS011;11910;52.086;21.066;2023-04-25T10:02:19;8.70;;;7.97;;
23474;SDS011;11910;52.086;21.066;2023-04-25T10:04:48;9.50;;;8.60;;
23474;SDS011;11910;52.086;21.066;2023-04-25T10:07:17;9.57;;;8.68;;
23474;SDS011;11910;52.086;21.066;2023-04-25T10:09:44;10.13;;;9.18;;
23474;SDS011;11910;52.086;21.066;2023-04-25T10:12:13;9.80;;;8.23;;
23474;SDS011;11910;52.086;21.066;2023-04-25T10:14:39;9.50;;;8.40;;
23474;SDS011;11910;52.086;21.066;2023-04-25T10:17:05;12.80;;;9.15;;
23474;SDS011;11910;52.086;21.066;2023-04-25T10:19:32;9.57;;;8.65;;
23474;SDS011;11910;52.086;21.066;2023-04-25T10:22:08;9.45;;;8.45;;
23474;SDS011;11910;52.086;21.066;2023-04-25T10:24:39;9.65;;;8.43;;
23474;SDS011;11910;52.086;21.066;2023-04-25T10:27:06;9.73;;;8.73;;
23474;SDS011;11910;52.086;21.066;2023-04-25T10:29:32;9.65;;;8.65;;
23474;SDS011;11910;52.086;21.066;2023-04-25T10:31:57;10.23;;;9.18;;
23474;SDS011;11910;52.086;21.066;2023-04-25T10:34:24;10.20;;;9.20;;
23474;SDS011;11910;52.086;21.066;2023-04-25T10:37:03;10.00;;;9.10;;
23474;SDS011;11910;52.086;21.066;2023-04-25T10:39:29;9.80;;;9.00;;
23474;SDS011;11910;52.086;21.066;2023-04-25T10:41:57;12.27;;;8.75;;
23474;SDS011;11910;52.086;21.066;2023-04-25T10:44:27;11.60;;;9.65;;
23474;SDS011;11910;52.086;21.066;2023-04-25T10:46:57;14.38;;;9.20;;
23474;SDS011;11910;52.086;21.066;2023-04-25T10:49:59;14.20;;;9.60;;
23474;SDS011;11910;52.086;21.066;2023-04-25T10:52:26;10.82;;;9.82;;
23474;SDS011;11910;52.086;21.066;2023-04-25T11:00:16;11.23;;;10.10;;
23474;SDS011;11910;52.086;21.066;2023-04-25T11:02:53;12.52;;;11.27;;
23474;SDS011;11910;52.086;21.066;2023-04-25T11:05:29;12.88;;;11.40;;
23474;SDS011;11910;52.086;21.066;2023-04-25T11:07:57;16.80;;;11.70;;
23474;SDS011;11910;52.086;21.066;2023-04-25T11:10:27;12.70;;;11.35;;
23474;SDS011;11910;52.086;21.066;2023-04-25T11:12:54;12.38;;;11.15;;
23474;SDS011;11910;52.086;21.066;2023-04-25T11:15:21;13.88;;;11.90;;
23474;SDS011;11910;52.086;21.066;2023-04-25T11:17:46;11.68;;;10.57;;
23474;SDS011;11910;52.086;21.066;2023-04-25T11:20:12;11.25;;;10.25;;
23474;SDS011;11910;52.086;21.066;2023-04-25T11:22:39;10.85;;;9.35;;
23474;SDS011;11910;52.086;21.066;2023-04-25T11:25:06;10.65;;;9.63;;
23474;SDS011;11910;52.086;21.066;2023-04-25T11:27:55;9.57;;;8.68;;
23474;SDS011;11910;52.086;21.066;2023-04-25T11:30:22;9.00;;;8.10;;
23474;SDS011;11910;52.086;21.066;2023-04-25T11:32:49;7.45;;;6.85;;
23474;SDS011;11910;52.086;21.066;2023-04-25T11:35:15;9.25;;;7.40;;
23474;SDS011;11910;52.086;21.066;2023-04-25T11:37:42;7.97;;;6.80;;
23474;SDS011;11910;52.086;21.066;2023-04-25T11:40:08;7.75;;;5.90;;
23474;SDS011;11910;52.086;21.066;2023-04-25T11:42:37;7.28;;;6.53;;
23474;SDS011;11910;52.086;21.066;2023-04-25T11:45:10;6.18;;;5.60;;
23474;SDS011;11910;52.086;21.066;2023-04-25T11:47:37;6.53;;;5.93;;
23474;SDS011;11910;52.086;21.066;2023-04-25T11:50:03;7.28;;;6.20;;
23474;SDS011;11910;52.086;21.066;2023-04-25T11:52:37;9.15;;;6.28;;
23474;SDS011;11910;52.086;21.066;2023-04-25T11:55:04;9.65;;;6.22;;
23474;SDS011;11910;52.086;21.066;2023-04-25T11:57:32;10.48;;;6.57;;
23474;SDS011;11910;52.086;21.066;2023-04-25T12:00:08;7.45;;;6.25;;
23474;SDS011;11910;52.086;21.066;2023-04-25T12:02:55;6.05;;;5.45;;
23474;SDS011;11910;52.086;21.066;2023-04-25T12:05:29;6.03;;;5.40;;
23474;SDS011;11910;52.086;21.066;2023-04-25T12:07:58;5.68;;;5.07;;
23474;SDS011;11910;52.086;21.066;2023-04-25T12:10:36;5.25;;;4.78;;
23474;SDS011;11910;52.086;21.066;2023-04-25T12:13:17;7.32;;;4.90;;
23474;SDS011;11910;52.086;21.066;2023-04-25T12:15:47;7.32;;;4.40;;
23474;SDS011;11910;52.086;21.066;2023-04-25T12:18:12;8.80;;;4.80;;
23474;SDS011;11910;52.086;21.066;2023-04-25T12:20:38;5.45;;;4.90;;
23474;SDS011;11910;52.086;21.066;2023-04-25T12:23:07;7.95;;;5.20;;
23474;SDS011;11910;52.086;21.066;2023-04-25T12:25:51;5.10;;;4.30;;
23474;SDS011;11910;52.086;21.066;2023-04-25T12:28:21;9.50;;;4.90;;
23474;SDS011;11910;52.086;21.066;2023-04-25T12:30:55;6.43;;;4.10;;
23474;SDS011;11910;52.086;21.066;2023-04-25T12:33:31;5.80;;;4.15;;
23474;SDS011;11910;52.086;21.066;2023-04-25T12:36:01;5.97;;;4.28;;
23474;SDS011;11910;52.086;21.066;2023-04-25T12:38:37;5.60;;;4.15;;
23474;SDS011;11910;52.086;21.066;2023-04-25T12:41:05;6.20;;;5.07;;
23474;SDS011;11910;52.086;21.066;2023-04-25T12:43:31;5.25;;;4.75;;
23474;SDS011;11910;52.086;21.066;2023-04-25T12:45:56;5.45;;;4.95;;
23474;SDS011;11910;52.086;21.066;2023-04-25T12:48:22;5.88;;;4.57;;
23474;SDS011;11910;52.086;21.066;2023-04-25T12:50:49;6.22;;;4.40;;
23474;SDS011;11910;52.086;21.066;2023-04-25T12:53:16;8.02;;;4.25;;
23474;SDS011;11910;52.086;21.066;2023-04-25T12:55:43;6.40;;;4.45;;
23474;SDS011;11910;52.086;21.066;2023-04-25T12:58:11;6.47;;;4.32;;
23474;SDS011;11910;52.086;21.066;2023-04-25T13:00:37;7.75;;;4.78;;
23474;SDS011;11910;52.086;21.066;2023-04-25T13:03:02;8.02;;;4.90;;
23474;SDS011;11910;52.086;21.066;2023-04-25T13:05:29;5.97;;;5.10;;
23474;SDS011;11910;52.086;21.066;2023-04-25T13:07:58;5.72;;;5.15;;
23474;SDS011;11910;52.086;21.066;2023-04-25T13:10:24;6.20;;;5.32;;
23474;SDS011;11910;52.086;21.066;2023-04-25T13:12:49;6.30;;;5.40;;
23474;SDS011;11910;52.086;21.066;2023-04-25T13:15:15;6.47;;;5.00;;
23474;SDS011;11910;52.086;21.066;2023-04-25T13:17:41;6.30;;;4.97;;
23474;SDS011;11910;52.086;21.066;2023-04-25T13:20:07;5.47;;;4.97;;
23474;SDS011;11910;52.086;21.066;2023-04-25T13:22:37;8.35;;;5.40;;
23474;SDS011;11910;52.086;21.066;2023-04-25T13:25:04;6.10;;;4.80;;
23474;SDS011;11910;52.086;21.066;2023-04-25T13:27:31;7.65;;;5.50;;
23474;SDS011;11910;52.086;21.066;2023-04-25T13:29:59;6.78;;;5.68;;
23474;SDS011;11910;52.086;21.066;2023-04-25T13:32:25;7.43;;;5.28;;
23474;SDS011;11910;52.086;21.066;2023-04-25T13:34:51;6.38;;;5.78;;
23474;SDS011;11910;52.086;21.066;2023-04-25T13:37:18;6.45;;;5.70;;
23474;SDS011;11910;52.086;21.066;2023-04-25T13:39:49;9.20;;;6.83;;
23474;SDS011;11910;52.086;21.066;2023-04-25T13:42:14;6.70;;;6.00;;
23474;SDS011;11910;52.086;21.066;2023-04-25T13:44:40;6.70;;;6.00;;
23474;SDS011;11910;52.086;21.066;2023-04-25T13:47:06;7.70;;;6.30;;
23474;SDS011;11910;52.086;21.066;2023-04-25T13:49:32;6.72;;;6.10;;
23474;SDS011;11910;52.086;21.066;2023-04-25T13:52:00;7.20;;;6.50;;
23474;SDS011;11910;52.086;21.066;2023-04-25T13:54:26;10.27;;;7.05;;
23474;SDS011;11910;52.086;21.066;2023-04-25T13:56:51;8.20;;;6.72;;
23474;SDS011;11910;52.086;21.066;2023-04-25T13:59:20;8.00;;;7.20;;
23474;SDS011;11910;52.086;21.066;2023-04-25T14:01:45;8.88;;;8.07;;
23474;SDS011;11910;52.086;21.066;2023-04-25T14:04:11;9.65;;;8.75;;
23474;SDS011;11910;52.086;21.066;2023-04-25T14:06:37;9.10;;;8.20;;
23474;SDS011;11910;52.086;21.066;2023-04-25T14:09:02;10.00;;;8.85;;
23474;SDS011;11910;52.086;21.066;2023-04-25T14:11:29;9.50;;;8.63;;
23474;SDS011;11910;52.086;21.066;2023-04-25T14:13:54;9.63;;;8.73;;
23474;SDS011;11910;52.086;21.066;2023-04-25T14:16:20;12.23;;;9.50;;
23474;SDS011;11910;52.086;21.066;2023-04-25T14:18:46;11.45;;;10.27;;
23474;SDS011;11910;52.086;21.066;2023-04-25T14:21:11;11.50;;;10.30;;
23474;SDS011;11910;52.086;21.066;2023-04-25T14:23:37;12.07;;;10.40;;
23474;SDS011;11910;52.086;21.066;2023-04-25T14:26:02;12.18;;;10.98;;
23474;SDS011;11910;52.086;21.066;2023-04-25T14:28:28;11.35;;;10.32;;
23474;SDS011;11910;52.086;21.066;2023-04-25T14:30:54;12.18;;;10.50;;